Decoded Metar for OPPS (PESHAWAR in PAKISTAN) (IATA:PEW) | Meteo·Mobile Aviation Weather
aviador You're here:

OPPS Decoded Metar

PESHAWAR in PAKISTAN
Report Time2019-01-23 08:00:00
UTC Time2019-01-23 08:13:11
Flight Rules mvfr MVFR
Wind360° at 08 kt
W.Decomp.*RWY 35: 7.9 kt HW 1.1 kt RCW
Visibility6000 m
Phenomena:Haze
Clouds:Scattered 015 Hf
Scattered 025 Hf
Few 080 Hf
Expected CloudBase > 2,000 ft AGL from Temp-Dew spread
CeilingNone
Temp12°C (ISA -1)
Dew Point07°C (72% RH)
AAT8.4°C
QNH1021 hPa
Density Alt974 ft
Elevation1,181 ft
Report Wrong Elevation
Raw Report
METAR OPPS 230800Z 36008KT 6000 HZ SCT015 SCT025 FEW080 12/07 Q1021=

Extra information for OPPS:More info

Metar Taf Metar & Taf Last 4 Metars F.Rules Stats Wind Profile Meteogram Temp Stats Airport Information Weather charts Add Link Nearby VenuesMetar ALERT Operation Metar Decoded Social comments